Time;durP1;ratioP1;P1;durP2;ratioP2;P2;SDS_P1;SDS_P2;PMS_P1;PMS_P2;Temp;Humidity;BMP_temperature;BMP_pressure;BME280_temperature;BME280_humidity;BME280_pressure;Samples;Min_cycle;Max_cycle;Signal;HPM_P1;HPM_P2
2022/09/28 08:01:53;;;;;;;9.85;6.85;;;;;;;9.38;100.00;99482.50;5320136;27;20392;-69
2022/09/28 08:04:24;;;;;;;10.10;6.30;;;;;;;9.36;99.99;99491.13;5303232;28;20040;-68
2022/09/28 08:06:55;;;;;;;6.90;6.05;;;;;;;9.39;99.10;99486.91;5305136;28;20494;-69
2022/09/28 08:09:28;;;;;;;7.13;6.35;;;;;;;9.42;98.66;99489.88;5302618;28;20020;-70
2022/09/28 08:11:59;;;;;;;6.93;6.10;;;;;;;9.46;98.90;99490.88;5314839;28;20039;-71
2022/09/28 08:14:40;;;;;;;7.80;6.78;;;;;;;9.56;98.74;99495.31;5298873;28;20032;-71
2022/09/28 08:17:14;;;;;;;7.07;6.25;;;;;;;9.62;98.99;99496.03;5316343;28;20035;-71
2022/09/28 08:22:36;;;;;;;7.30;6.60;;;;;;;9.76;98.69;99502.28;5319668;28;20511;-71
2022/09/28 08:25:07;;;;;;;7.38;6.07;;;;;;;9.81;98.14;99507.69;5320158;28;20059;-72
2022/09/28 08:27:39;;;;;;;6.82;6.20;;;;;;;9.94;98.90;99501.25;5314570;28;20475;-70
2022/09/28 08:30:10;;;;;;;7.25;6.55;;;;;;;10.00;99.21;99508.28;5319945;28;20027;-71
2022/09/28 08:32:48;;;;;;;7.68;5.68;;;;;;;10.00;97.99;99508.28;5314751;28;20025;-72
2022/09/28 08:35:19;;;;;;;6.05;5.40;;;;;;;10.06;97.28;99502.63;5303041;28;20030;-71
2022/09/28 08:37:52;;;;;;;7.18;5.72;;;;;;;10.10;97.26;99509.13;5312710;28;20032;-69
2022/09/28 08:40:24;;;;;;;6.80;5.30;;;;;;;10.23;97.26;99506.28;5306913;28;20472;-69
2022/09/28 08:43:01;;;;;;;9.75;5.30;;;;;;;10.41;99.35;99514.69;5308905;28;20032;-69
2022/09/28 08:45:35;;;;;;;10.93;6.47;;;;;;;10.53;98.33;99525.16;5314150;28;20088;-72
2022/09/28 08:51:32;;;;;;;8.90;4.88;;;;;;;10.91;99.38;99527.34;5303687;28;20399;-74
2022/09/28 08:54:37;;;;;;;7.00;5.70;;;;;;;10.77;96.98;99525.56;5311107;28;20031;-71
2022/09/28 08:57:23;;;;;;;7.35;4.90;;;;;;;10.93;95.27;99528.66;5320017;28;20042;-74
2022/09/28 08:59:58;;;;;;;13.45;5.30;;;;;;;11.29;95.34;99520.03;5311463;28;20392;-74
2022/09/28 09:02:32;;;;;;;9.73;4.80;;;;;;;11.13;93.53;99530.00;5315809;28;20039;-78
2022/09/28 09:05:09;;;;;;;5.43;4.72;;;;;;;11.06;91.72;99526.88;5321322;28;20379;-76
2022/09/28 09:08:03;;;;;;;8.18;4.68;;;;;;;10.98;91.60;99528.50;5319584;28;20390;-74
2022/09/28 09:10:46;;;;;;;12.85;5.28;;;;;;;11.32;94.10;99535.22;5318812;28;20027;-72
2022/09/28 09:13:47;;;;;;;14.40;5.45;;;;;;;11.30;92.39;99537.53;5285538;28;20107;-72
2022/09/28 09:16:36;;;;;;;14.68;5.43;;;;;;;11.32;91.22;99546.31;5285607;28;20036;-72
2022/09/28 09:19:34;;;;;;;16.17;5.20;;;;;;;11.39;91.88;99540.28;5304156;28;20060;-75
2022/09/28 09:22:26;;;;;;;8.23;5.10;;;;;;;11.36;91.42;99547.31;5304926;28;20032;-75
2022/09/28 09:25:18;;;;;;;9.27;4.70;;;;;;;11.49;91.34;99557.44;5304295;28;20047;-76
2022/09/28 09:28:14;;;;;;;7.95;4.90;;;;;;;11.58;90.49;99557.44;5294966;28;20538;-74
2022/09/28 09:31:18;;;;;;;6.90;4.60;;;;;;;11.53;91.05;99552.06;5288086;28;20468;-72
2022/09/28 09:34:04;;;;;;;7.20;4.53;;;;;;;11.49;91.47;99554.66;5265674;28;20084;-76
2022/09/28 09:36:42;;;;;;;7.85;4.78;;;;;;;11.51;90.47;99554.34;5295463;28;20085;-78
2022/09/28 09:39:31;;;;;;;11.30;5.18;;;;;;;11.65;91.96;99552.19;5302289;28;20028;-79
2022/09/28 09:42:18;;;;;;;7.70;4.90;;;;;;;11.76;91.97;99561.03;5301556;28;20062;-74
2022/09/28 09:45:25;;;;;;;5.00;3.97;;;;;;;11.66;89.72;99561.38;5303470;28;20043;-77
2022/09/28 09:48:08;;;;;;;;;;;;;;;11.71;89.48;99562.00;5247979;28;20492;-79
2022/09/28 09:50:48;;;;;;;9.00;8.20;;;;;;;11.48;87.89;99566.09;5311998;28;20321;-76
2022/09/28 09:53:35;;;;;;;5.60;4.93;;;;;;;11.39;88.84;99568.88;5293482;28;20024;-78
2022/09/28 09:56:17;;;;;;;4.50;4.10;;;;;;;11.31;88.69;99566.91;5295642;28;20379;-81
2022/09/28 09:58:53;;;;;;;6.60;3.75;;;;;;;11.29;88.48;99564.44;5285995;28;20044;-74
2022/09/28 10:01:40;;;;;;;5.57;4.10;;;;;;;11.32;88.84;99563.81;5288139;28;20052;-73
2022/09/28 10:04:24;;;;;;;6.05;4.00;;;;;;;11.30;89.39;99557.78;5296085;28;20029;-76
2022/09/28 10:07:04;;;;;;;5.60;4.30;;;;;;;11.31;88.70;99562.16;5281087;28;20702;-75
2022/09/28 10:09:41;;;;;;;20.27;10.98;;;;;;;11.37;89.09;99560.03;5295825;28;20475;-73
2022/09/28 10:12:20;;;;;;;10.63;9.45;;;;;;;11.32;89.02;99558.28;5304297;28;20023;-75
2022/09/28 10:14:54;;;;;;;6.28;5.60;;;;;;;11.37;89.75;99559.22;5300827;28;20051;-75
2022/09/28 10:17:28;;;;;;;6.13;4.45;;;;;;;11.48;89.45;99563.34;5297620;28;20099;-77
2022/09/28 10:20:05;;;;;;;9.50;5.05;;;;;;;11.58;89.52;99563.00;5288027;28;20119;-76
2022/09/28 10:22:36;;;;;;;8.93;4.00;;;;;;;11.64;89.23;99561.69;5298379;28;20028;-77
2022/09/28 10:25:11;;;;;;;7.68;3.95;;;;;;;11.56;86.80;99568.06;5283894;28;20021;-74
2022/09/28 10:27:48;;;;;;;6.75;3.40;;;;;;;11.73;89.38;99562.50;5289188;28;20501;-76
2022/09/28 10:30:24;;;;;;;5.85;3.13;;;;;;;12.14;90.51;99560.31;5282780;28;20035;-80
2022/09/28 10:32:58;;;;;;;10.00;4.28;;;;;;;11.90;86.37;99558.06;5283986;28;20037;-79
2022/09/28 10:35:47;;;;;;;5.85;3.80;;;;;;;11.99;86.45;99552.50;5283087;28;20032;-79
2022/09/28 10:38:23;;;;;;;6.18;4.35;;;;;;;11.98;85.77;99557.25;5284570;28;20031;-79
2022/09/28 10:40:58;;;;;;;6.18;3.92;;;;;;;12.00;85.66;99554.16;5287167;28;20028;-79
2022/09/28 10:43:37;;;;;;;6.30;3.90;;;;;;;12.04;85.13;99558.72;5293822;28;20028;-78
2022/09/28 10:46:10;;;;;;;16.10;13.05;;;;;;;12.17;85.73;99554.91;5304017;28;20478;-78
2022/09/28 10:48:54;;;;;;;5.78;4.80;;;;;;;12.16;85.73;99552.44;5302832;28;20031;-80
2022/09/28 10:51:46;;;;;;;5.70;4.03;;;;;;;12.23;85.81;99552.75;5305086;28;20019;-78
2022/09/28 10:54:26;;;;;;;5.28;3.67;;;;;;;12.23;83.93;99549.19;5303596;28;20016;-78
2022/09/28 10:56:58;;;;;;;6.55;3.75;;;;;;;12.29;83.68;99554.19;5301488;28;20567;-76
2022/09/28 10:59:29;;;;;;;4.28;3.17;;;;;;;12.39;82.88;99556.63;5287992;28;20024;-76
2022/09/28 11:02:12;;;;;;;5.18;2.97;;;;;;;12.46;81.26;99550.56;5281142;28;20055;-78
2022/09/28 11:04:50;;;;;;;5.72;2.88;;;;;;;12.50;80.62;99559.88;5281868;28;20044;-77
2022/09/28 11:07:26;;;;;;;3.70;2.80;;;;;;;12.57;81.61;99549.00;5293506;28;20032;-75
2022/09/28 11:09:58;;;;;;;;;;;;;;;12.76;82.42;99550.59;5301459;28;20361;-78
2022/09/28 11:12:41;;;;;;;3.83;3.42;;;;;;;12.82;81.77;99552.00;5292500;28;19982;-77
2022/09/28 11:15:18;;;;;;;5.10;2.88;;;;;;;12.83;79.55;99560.03;5297495;28;20070;-78
2022/09/28 11:17:50;;;;;;;5.20;2.42;;;;;;;12.96;79.49;99548.97;5291887;28;20029;-78
2022/09/28 11:20:24;;;;;;;3.97;1.77;;;;;;;13.08;77.80;99548.25;5282399;28;20025;-78
2022/09/28 11:23:16;;;;;;;2.83;1.60;;;;;;;13.01;76.25;99545.97;5282450;28;20373;-76
2022/09/28 11:26:05;;;;;;;3.03;2.33;;;;;;;13.02;77.89;99555.97;5290037;28;20020;-75
2022/09/28 11:28:37;;;;;;;2.42;1.92;;;;;;;12.97;77.35;99554.22;5281621;28;20141;-74
2022/09/28 11:31:10;;;;;;;4.50;3.90;;;;;;;12.91;77.67;99550.00;5281038;28;20024;-75
2022/09/28 11:33:45;;;;;;;8.45;5.85;;;;;;;13.08;78.15;99551.03;5288987;28;20024;-75
2022/09/28 11:36:43;;;;;;;5.60;3.15;;;;;;;13.08;78.54;99549.06;5281190;28;20039;-75
2022/09/28 11:39:28;;;;;;;3.80;2.80;;;;;;;13.03;78.47;99550.06;5281544;28;20480;-76
2022/09/28 11:42:16;;;;;;;3.75;2.97;;;;;;;13.03;78.59;99552.84;5290238;28;20051;-76
2022/09/28 11:44:48;;;;;;;6.35;3.17;;;;;;;13.02;80.01;99555.97;5294293;28;20024;-75
2022/09/28 11:47:33;;;;;;;6.32;2.95;;;;;;;13.05;78.96;99544.97;5301882;28;20024;-75
2022/09/28 11:50:39;;;;;;;11.25;3.50;;;;;;;13.27;78.46;99549.44;5302469;28;20035;-75
2022/09/28 11:53:29;;;;;;;3.60;3.05;;;;;;;13.48;78.72;99546.66;5300442;28;20032;-75
2022/09/28 11:56:33;;;;;;;6.65;2.83;;;;;;;13.48;77.18;99543.88;5302605;28;20486;-76
2022/09/28 11:59:08;;;;;;;7.35;4.00;;;;;;;13.37;78.15;99547.38;5281718;28;20471;-75
2022/09/28 12:01:50;;;;;;;6.30;2.90;;;;;;;13.23;77.85;99536.50;5280903;28;20057;-75
2022/09/28 12:04:32;;;;;;;5.30;3.00;;;;;;;13.07;78.53;99546.63;5295216;28;20036;-74
2022/09/28 12:07:13;;;;;;;6.93;3.25;;;;;;;13.07;79.70;99552.19;5302464;28;20039;-76
2022/09/28 12:10:28;;;;;;;7.90;4.15;;;;;;;13.15;80.81;99548.53;5285032;28;20055;-76
2022/09/28 12:13:11;;;;;;;4.15;3.20;;;;;;;13.17;80.09;99549.00;5257199;28;20044;-75
2022/09/28 12:15:50;;;;;;;6.32;3.13;;;;;;;13.22;80.10;99537.66;5294700;28;20029;-75
2022/09/28 12:18:40;;;;;;;2.67;2.45;;;;;;;13.15;78.56;99537.41;5284494;28;20112;-72
2022/09/28 12:21:24;;;;;;;4.68;2.65;;;;;;;13.13;77.55;99539.69;5290589;28;20031;-74
2022/09/28 12:24:16;;;;;;;8.00;2.47;;;;;;;13.16;75.96;99534.25;5302227;28;20101;-76
2022/09/28 12:26:53;;;;;;;4.15;1.80;;;;;;;13.23;73.88;99536.50;5283795;28;20210;-79
2022/09/28 12:29:37;;;;;;;4.43;2.05;;;;;;;13.41;72.29;99540.81;5281112;28;20028;-77
2022/09/28 12:32:24;;;;;;;6.95;2.22;;;;;;;13.48;73.81;99546.66;5301881;28;20078;-79
2022/09/28 12:34:56;;;;;;;4.03;2.10;;;;;;;13.42;74.41;99550.81;5303785;28;20051;-78
2022/09/28 12:38:10;;;;;;;4.38;2.47;;;;;;;13.41;75.46;99557.50;5308267;28;20020;-82
2022/09/28 12:41:22;;;;;;;2.67;1.85;;;;;;;13.25;76.42;99559.25;5301137;28;20020;-78
2022/09/28 12:44:27;;;;;;;10.85;9.73;;;;;;;13.22;76.41;99562.72;5243049;28;20109;-77
2022/09/28 12:47:26;;;;;;;3.70;2.05;;;;;;;13.10;77.64;99551.50;5241408;28;20101;-78
2022/09/28 12:50:13;;;;;;;4.10;1.70;;;;;;;13.12;79.31;99561.16;5282204;28;20544;-77
2022/09/28 12:53:09;;;;;;;5.30;1.42;;;;;;;12.99;77.75;99559.44;5286867;28;20052;-78
2022/09/28 12:56:19;;;;;;;5.90;1.70;;;;;;;12.89;79.29;99557.06;5305720;28;20054;-79
2022/09/28 12:59:00;;;;;;;2.75;1.40;;;;;;;12.86;79.08;99552.97;5307895;28;20192;-78
2022/09/28 13:01:38;;;;;;;4.10;1.30;;;;;;;12.75;78.73;99555.31;5302798;28;20127;-78
2022/09/28 13:04:20;;;;;;;3.35;1.45;;;;;;;12.78;78.36;99562.16;5309933;28;20395;-78
2022/09/28 13:07:01;;;;;;;3.67;1.30;;;;;;;12.50;78.98;99562.66;5307555;28;20432;-76
2022/09/28 13:09:56;;;;;;;2.60;1.00;;;;;;;12.57;79.47;99556.53;5294174;28;20024;-76
2022/09/28 13:13:16;;;;;;;1.77;1.00;;;;;;;12.71;80.83;99556.34;5302062;28;20035;-75
2022/09/28 13:15:56;;;;;;;6.03;5.43;;;;;;;12.51;80.17;99561.50;5284956;28;20036;-80
2022/09/28 13:18:44;;;;;;;1.45;0.80;;;;;;;12.55;81.50;99565.25;5289315;28;20073;-81
2022/09/28 13:21:33;;;;;;;4.85;1.30;;;;;;;12.83;82.29;99565.59;5305391;28;20032;-80
2022/09/28 13:24:11;;;;;;;4.05;1.42;;;;;;;12.82;81.64;99563.13;5305310;28;20405;-76
2022/09/28 13:26:46;;;;;;;2.72;1.05;;;;;;;12.59;81.60;99571.75;5285881;28;20051;-77
2022/09/28 13:29:19;;;;;;;2.92;1.42;;;;;;;12.44;79.91;99566.75;5284503;28;20482;-79
2022/09/28 13:31:56;;;;;;;2.00;1.00;;;;;;;12.54;81.20;99576.69;5298838;28;20054;-78
2022/09/28 13:34:31;;;;;;;1.60;0.82;;;;;;;12.36;81.09;99568.41;5303378;28;20089;-82
2022/09/28 13:37:19;;;;;;;1.95;0.95;;;;;;;12.25;80.34;99566.34;5288760;28;20051;-82
2022/09/28 13:39:51;;;;;;;2.00;0.70;;;;;;;12.03;80.61;99562.63;5303421;28;20029;-83
2022/09/28 13:42:43;;;;;;;2.17;0.90;;;;;;;12.06;80.63;99569.47;5287317;28;20025;-82
2022/09/28 13:45:21;;;;;;;2.60;2.17;;;;;;;12.06;80.63;99563.94;5287937;28;20040;-78
2022/09/28 13:47:58;;;;;;;1.50;1.05;;;;;;;12.05;80.03;99562.31;5298008;28;20355;-77
2022/09/28 13:50:48;;;;;;;1.83;1.13;;;;;;;12.27;81.83;99564.84;5302783;28;20078;-77
2022/09/28 13:53:25;;;;;;;1.42;1.00;;;;;;;12.18;80.44;99567.66;5285199;28;20032;-77
2022/09/28 13:56:14;;;;;;;2.08;0.60;;;;;;;12.08;79.42;99562.44;5284428;28;20037;-78
2022/09/28 13:59:01;;;;;;;2.67;1.30;;;;;;;11.99;78.85;99563.59;5284367;28;20040;-75
2022/09/28 14:01:45;;;;;;;0.50;0.50;;;;;;;12.04;78.77;99569.00;5296061;28;20056;-78
2022/09/28 14:04:46;;;;;;;2.25;0.80;;;;;;;12.18;79.04;99566.84;5299105;28;20518;-76
2022/09/28 14:07:46;;;;;;;2.92;0.73;;;;;;;12.10;80.06;99568.50;5291143;28;20142;-76
2022/09/28 14:10:45;;;;;;;1.85;0.90;;;;;;;12.17;79.59;99566.03;5300306;28;20475;-76
2022/09/28 14:13:41;;;;;;;1.63;0.70;;;;;;;12.22;79.93;99572.53;5294406;28;20437;-74
2022/09/28 14:16:21;;;;;;;1.75;1.08;;;;;;;12.56;81.36;99572.44;5285004;28;20103;-75
2022/09/28 14:19:06;;;;;;;1.50;0.85;;;;;;;12.66;80.91;99570.44;5282392;28;20029;-75
2022/09/28 14:21:49;;;;;;;1.55;0.90;;;;;;;12.65;80.10;99566.81;5286695;28;20047;-75
2022/09/28 14:24:31;;;;;;;2.97;1.05;;;;;;;12.68;80.39;99566.16;5302661;28;20483;-74
2022/09/28 14:27:27;;;;;;;1.88;1.30;;;;;;;12.76;80.34;99559.72;5282145;28;20024;-75
2022/09/28 14:30:26;;;;;;;5.00;3.08;;;;;;;12.86;80.94;99566.88;5283405;28;20051;-77
2022/09/28 14:32:58;;;;;;;5.90;4.15;;;;;;;12.86;80.04;99564.09;5282428;28;20102;-74
2022/09/28 14:35:38;;;;;;;3.15;1.40;;;;;;;13.02;79.86;99564.34;5281861;28;20375;-73
2022/09/28 14:41:30;;;;;;;1.40;1.00;;;;;;;13.22;77.47;99569.09;5286744;28;20040;-75
2022/09/28 14:44:06;;;;;;;2.55;1.35;;;;;;;13.41;75.45;99577.00;5303394;28;20081;-75
2022/09/28 14:46:44;;;;;;;1.08;0.90;;;;;;;13.26;70.85;99575.63;5299974;28;20028;-76
2022/09/28 14:49:15;;;;;;;1.92;0.80;;;;;;;13.38;72.08;99580.47;5282487;28;20028;-76
2022/09/28 14:51:46;;;;;;;0.60;0.60;;;;;;;13.32;70.48;99575.44;5282136;28;20499;-76
2022/09/28 14:54:20;;;;;;;1.35;0.60;;;;;;;13.24;68.76;99574.31;5282899;28;20443;-77
2022/09/28 14:56:51;;;;;;;0.80;0.80;;;;;;;13.36;69.50;99577.22;5285244;28;20730;-78
2022/09/28 14:59:25;;;;;;;0.80;0.80;;;;;;;13.39;68.70;99576.53;5283175;28;20064;-76
2022/09/28 15:02:18;;;;;;;2.83;2.15;;;;;;;13.58;70.97;99587.22;5281560;28;20083;-75
2022/09/28 15:04:58;;;;;;;5.22;4.20;;;;;;;13.56;67.39;99580.34;5290461;28;20044;-75
2022/09/28 15:07:46;;;;;;;6.38;4.63;;;;;;;13.62;67.43;99587.34;5302468;28;20601;-75
2022/09/28 15:10:38;;;;;;;1.20;1.08;;;;;;;13.81;70.41;99590.44;5290928;28;20020;-77
2022/09/28 15:13:26;;;;;;;2.63;0.98;;;;;;;13.83;68.27;99588.16;5281718;28;20028;-75
2022/09/28 15:16:10;;;;;;;3.33;1.55;;;;;;;13.72;67.43;99598.06;5292393;28;20032;-77
2022/09/28 15:19:12;;;;;;;2.60;0.80;;;;;;;13.67;68.08;99592.69;5282765;28;20028;-72
2022/09/28 15:21:46;;;;;;;1.88;0.90;;;;;;;13.66;68.79;99596.66;5282408;28;20460;-75
2022/09/28 15:24:32;;;;;;;1.00;0.80;;;;;;;13.59;67.70;99597.19;5288414;28;20024;-76
2022/09/28 15:27:15;;;;;;;1.10;1.00;;;;;;;13.52;68.46;99598.88;5302954;28;20481;-76
2022/09/28 15:30:22;;;;;;;1.60;0.90;;;;;;;13.63;69.02;99597.34;5302988;28;20020;-75
2022/09/28 15:32:55;;;;;;;1.63;0.68;;;;;;;13.66;68.28;99605.00;5292540;28;20055;-75
2022/09/28 15:35:27;;;;;;;1.45;0.77;;;;;;;13.83;70.01;99606.81;5303064;28;20035;-73
2022/09/28 15:37:58;;;;;;;0.68;0.65;;;;;;;13.71;68.90;99610.38;5299487;28;20032;-73
2022/09/28 15:40:36;;;;;;;1.25;0.70;;;;;;;13.87;71.07;99607.78;5291577;28;20020;-75
2022/09/28 15:43:25;;;;;;;1.30;0.95;;;;;;;13.74;68.93;99614.44;5302644;28;20067;-75
2022/09/28 15:46:12;;;;;;;1.88;1.00;;;;;;;13.79;70.23;99617.03;5294061;28;20107;-75
2022/09/28 15:48:50;;;;;;;2.38;0.77;;;;;;;13.85;68.75;99616.47;5299738;28;20035;-76
2022/09/28 15:51:23;;;;;;;2.60;0.77;;;;;;;13.52;66.13;99612.81;5291987;28;20119;-75
2022/09/28 15:54:01;;;;;;;1.75;0.90;;;;;;;13.45;67.87;99619.75;5302538;28;20100;-74
2022/09/28 15:56:53;;;;;;;3.40;1.20;;;;;;;13.26;67.39;99622.13;5292003;28;20033;-78
2022/09/28 15:59:30;;;;;;;2.63;1.00;;;;;;;13.20;67.55;99617.94;5284947;28;20032;-79
2022/09/28 16:02:16;;;;;;;2.10;1.20;;;;;;;13.05;66.69;99628.47;5299065;28;20503;-76
2022/09/28 16:04:50;;;;;;;1.75;1.42;;;;;;;12.81;67.57;99622.72;5303018;28;20020;-76
2022/09/28 16:07:29;;;;;;;1.63;1.27;;;;;;;12.82;68.31;99621.56;5299569;28;20024;-76
2022/09/28 16:10:11;;;;;;;1.23;1.13;;;;;;;12.82;68.47;99629.91;5293940;28;20025;-76
2022/09/28 16:12:47;;;;;;;1.10;1.00;;;;;;;12.85;69.44;99623.66;5301247;28;20116;-77
2022/09/28 16:15:24;;;;;;;1.10;1.00;;;;;;;12.84;68.79;99638.75;5300352;28;20387;-77
2022/09/28 16:18:02;;;;;;;2.42;0.90;;;;;;;12.79;69.31;99636.16;5301986;28;20098;-76
2022/09/28 16:20:35;;;;;;;1.50;1.30;;;;;;;12.71;68.25;99640.59;5301625;28;20036;-76
2022/09/28 16:23:15;;;;;;;3.72;1.80;;;;;;;12.63;68.53;99635.88;5289126;28;20084;-75
2022/09/28 16:25:51;;;;;;;1.95;1.02;;;;;;;12.59;69.78;99637.69;5303686;28;20413;-76
2022/09/28 16:28:47;;;;;;;2.88;1.00;;;;;;;12.54;68.60;99635.91;5292745;28;20024;-75
2022/09/28 16:31:19;;;;;;;1.10;0.80;;;;;;;12.62;69.46;99632.25;5306522;28;20051;-75
2022/09/28 16:33:58;;;;;;;4.03;2.80;;;;;;;12.60;69.74;99629.03;5291671;28;20040;-74
2022/09/28 16:36:48;;;;;;;2.65;1.27;;;;;;;12.55;70.01;99637.56;5305915;28;20031;-74
2022/09/28 16:39:20;;;;;;;1.35;0.98;;;;;;;12.55;70.63;99629.22;5305819;28;20036;-77
2022/09/28 16:41:58;;;;;;;2.65;0.80;;;;;;;12.56;70.97;99630.81;5301201;28;20035;-76
2022/09/28 16:44:35;;;;;;;3.10;0.70;;;;;;;12.61;70.66;99632.63;5305808;28;20031;-75
2022/09/28 16:47:06;;;;;;;1.77;1.02;;;;;;;12.65;70.53;99638.31;5289834;28;20063;-75
2022/09/28 16:49:38;;;;;;;1.30;1.00;;;;;;;12.64;71.10;99637.50;5299861;28;20083;-75
2022/09/28 16:55:13;;;;;;;1.27;1.00;;;;;;;12.65;71.37;99643.88;5291407;28;20043;-75
2022/09/28 16:55:15;;;;;;;1.48;0.93;;;;;;;12.57;72.22;99639.97;5296463;28;20040;-74
2022/09/28 16:57:50;;;;;;;3.50;1.10;;;;;;;12.64;72.10;99639.47;5294912;28;20025;-75
2022/09/28 17:00:23;;;;;;;1.67;1.15;;;;;;;12.54;71.35;99640.66;5290099;28;20052;-75
2022/09/28 17:02:56;;;;;;;1.58;1.00;;;;;;;12.40;72.43;99649.22;5296218;28;20044;-76
2022/09/28 17:05:27;;;;;;;3.45;2.30;;;;;;;12.48;73.02;99650.34;5300447;28;20032;-76
2022/09/28 17:08:02;;;;;;;5.47;1.85;;;;;;;12.48;74.63;99647.56;5305315;28;20532;-76
2022/09/28 17:10:42;;;;;;;2.92;1.40;;;;;;;12.48;74.39;99647.56;5289718;28;20036;-75
2022/09/28 17:13:14;;;;;;;2.47;1.80;;;;;;;12.45;74.63;99651.81;5284278;28;20372;-76
2022/09/28 17:15:49;;;;;;;3.50;2.33;;;;;;;12.49;73.92;99649.97;5298472;28;20101;-75
2022/09/28 17:18:20;;;;;;;3.30;2.30;;;;;;;12.46;74.39;99656.22;5288584;28;20383;-74
2022/09/28 17:20:54;;;;;;;3.33;1.88;;;;;;;12.45;74.41;99660.16;5301564;28;20031;-74
2022/09/28 17:23:25;;;;;;;5.10;2.40;;;;;;;12.42;74.54;99652.44;5298605;28;20127;-75
2022/09/28 17:25:57;;;;;;;4.32;2.80;;;;;;;12.47;74.29;99662.59;5285109;28;20107;-76
2022/09/28 17:28:35;;;;;;;9.55;5.30;;;;;;;12.43;74.11;99662.44;5305064;28;20434;-76
2022/09/28 17:31:13;;;;;;;11.43;5.82;;;;;;;12.43;73.82;99667.19;5298694;28;20157;-76
